createdAt,value
2022-09-02T00:00:14.081Z,0.00
2022-09-02T00:01:13.204Z,0.00
2022-09-02T00:02:13.753Z,0.00
2022-09-02T00:03:14.157Z,0.00
2022-09-02T00:04:14.301Z,0.00
2022-09-02T00:05:14.673Z,0.00
2022-09-02T00:06:15.024Z,0.00
2022-09-02T00:07:15.404Z,0.00
2022-09-02T00:08:15.775Z,0.00
2022-09-02T00:09:16.140Z,0.00
2022-09-02T00:10:16.479Z,0.00
2022-09-02T00:11:16.842Z,0.00
2022-09-02T00:12:17.228Z,0.00
2022-09-02T00:13:17.718Z,0.00
2022-09-02T00:14:17.939Z,0.00
2022-09-02T00:15:18.294Z,0.00
2022-09-02T00:16:18.704Z,0.00
2022-09-02T00:17:19.068Z,0.00
2022-09-02T00:18:19.386Z,0.00
2022-09-02T00:19:19.748Z,0.00
2022-09-02T00:20:20.102Z,0.00
2022-09-02T00:21:20.459Z,0.00
2022-09-02T00:22:20.840Z,0.00
2022-09-02T00:23:21.276Z,0.00
2022-09-02T00:24:21.588Z,0.00
2022-09-02T00:25:21.904Z,0.00
2022-09-02T00:26:22.265Z,0.00
2022-09-02T00:27:22.644Z,0.00
2022-09-02T00:28:22.999Z,0.00
2022-09-02T00:29:23.375Z,0.00
2022-09-02T00:30:23.724Z,0.00
2022-09-02T00:31:24.107Z,0.00
2022-09-02T00:32:24.502Z,0.00
2022-09-02T00:33:24.813Z,0.00
2022-09-02T00:34:25.170Z,0.00
2022-09-02T00:35:25.534Z,0.00
2022-09-02T00:36:25.893Z,0.00
2022-09-02T00:37:26.262Z,0.00
2022-09-02T00:38:26.620Z,0.00
2022-09-02T00:39:26.981Z,0.00
2022-09-02T00:40:27.385Z,0.00
2022-09-02T00:41:27.710Z,0.00
2022-09-02T00:42:28.101Z,0.00
2022-09-02T00:43:28.442Z,0.00
2022-09-02T00:44:28.810Z,0.00
2022-09-02T00:45:29.260Z,0.00
2022-09-02T00:46:30.418Z,0.00
2022-09-02T00:47:29.900Z,0.00
2022-09-02T00:48:30.222Z,0.00
2022-09-02T00:49:30.572Z,0.00
2022-09-02T00:50:30.934Z,0.00
2022-09-02T00:51:31.295Z,0.00
2022-09-02T00:52:31.654Z,0.00
2022-09-02T00:53:32.025Z,0.00
2022-09-02T00:54:32.384Z,0.00
2022-09-02T00:55:32.740Z,0.00
2022-09-02T00:56:33.090Z,0.00
2022-09-02T00:57:33.468Z,0.00
2022-09-02T00:58:33.829Z,0.00
2022-09-02T00:59:34.175Z,0.00
2022-09-02T01:00:34.813Z,0.00
2022-09-02T01:01:35.040Z,0.00
2022-09-02T01:02:35.310Z,0.00
2022-09-02T01:03:35.648Z,0.00
2022-09-02T01:04:36.007Z,0.00
2022-09-02T01:05:38.615Z,0.00
2022-09-02T01:06:36.744Z,0.00
2022-09-02T01:07:37.135Z,0.00
2022-09-02T01:08:37.473Z,0.00
2022-09-02T01:09:37.835Z,0.00
2022-09-02T01:10:38.213Z,0.00
2022-09-02T01:11:38.549Z,0.00
2022-09-02T01:12:38.925Z,0.00
2022-09-02T01:13:39.309Z,0.00
2022-09-02T01:14:39.628Z,0.00
2022-09-02T01:15:39.985Z,0.00
2022-09-02T01:16:40.481Z,0.00
2022-09-02T01:17:40.737Z,0.00
2022-09-02T01:18:41.086Z,0.00
2022-09-02T01:19:41.454Z,0.00
2022-09-02T01:20:41.795Z,0.00
2022-09-02T01:21:42.150Z,0.00
2022-09-02T01:22:42.523Z,0.00
2022-09-02T01:23:42.866Z,0.00
2022-09-02T01:24:43.225Z,0.00
2022-09-02T01:25:43.571Z,0.00
2022-09-02T01:26:43.924Z,0.00
2022-09-02T01:27:44.298Z,0.00
2022-09-02T01:28:44.650Z,0.00
2022-09-02T01:29:45.002Z,0.00
2022-09-02T01:30:45.376Z,0.00
2022-09-02T01:31:45.788Z,0.00
2022-09-02T01:32:46.158Z,0.00
2022-09-02T01:33:46.463Z,0.00
2022-09-02T01:34:46.823Z,0.00
2022-09-02T01:35:47.176Z,0.00
2022-09-02T01:36:47.537Z,0.00
2022-09-02T01:37:55.573Z,0.00
2022-09-02T01:38:48.259Z,0.00
2022-09-02T01:39:48.615Z,0.00
2022-09-02T01:40:49.021Z,0.00
2022-09-02T01:41:49.337Z,0.00
2022-09-02T01:42:49.725Z,0.00
2022-09-02T01:43:50.034Z,0.00
2022-09-02T01:44:50.395Z,0.00
2022-09-02T01:45:50.739Z,0.00
2022-09-02T01:46:51.210Z,0.00
2022-09-02T01:47:51.499Z,0.00
2022-09-02T01:48:51.836Z,0.00
2022-09-02T01:49:52.188Z,0.00
2022-09-02T01:50:52.567Z,0.00
2022-09-02T01:51:52.909Z,0.00
2022-09-02T01:52:53.287Z,0.00
2022-09-02T01:53:53.619Z,0.00
2022-09-02T01:54:53.991Z,0.00
2022-09-02T01:55:54.397Z,0.00
2022-09-02T01:56:54.720Z,0.00
2022-09-02T01:57:55.106Z,0.00
2022-09-02T01:58:55.432Z,0.00
2022-09-02T01:59:55.773Z,0.00
2022-09-02T02:00:56.201Z,0.00
2022-09-02T02:01:56.507Z,0.00
2022-09-02T02:02:56.875Z,0.00
2022-09-02T02:03:57.202Z,0.00
2022-09-02T02:04:57.570Z,0.00
2022-09-02T02:05:57.923Z,0.00
2022-09-02T02:06:58.284Z,0.00
2022-09-02T02:07:58.636Z,0.00
2022-09-02T02:08:58.959Z,0.00
2022-09-02T02:09:59.325Z,0.00
2022-09-02T02:10:59.704Z,0.00
2022-09-02T02:12:00.031Z,0.00
2022-09-02T02:13:00.417Z,0.00
2022-09-02T02:14:00.739Z,0.00
2022-09-02T02:15:01.138Z,0.00
2022-09-02T02:16:01.493Z,0.00
2022-09-02T02:17:01.831Z,0.00
2022-09-02T02:18:02.218Z,0.00
2022-09-02T02:19:02.560Z,0.00
2022-09-02T02:20:02.889Z,0.00
2022-09-02T02:21:03.215Z,0.00
2022-09-02T02:22:03.573Z,0.00
2022-09-02T02:23:03.968Z,0.00
2022-09-02T02:24:04.282Z,0.00
2022-09-02T02:25:04.659Z,0.00
2022-09-02T02:26:04.986Z,0.00
2022-09-02T02:27:05.363Z,0.00
2022-09-02T02:28:05.758Z,0.00
2022-09-02T02:29:06.092Z,0.00
2022-09-02T02:30:06.421Z,0.00
2022-09-02T02:31:06.853Z,0.00
2022-09-02T02:32:07.144Z,0.00
2022-09-02T02:33:07.557Z,0.00
2022-09-02T02:34:07.882Z,0.00
2022-09-02T02:35:08.256Z,0.00
2022-09-02T02:36:08.580Z,0.00
2022-09-02T02:37:08.955Z,0.00
2022-09-02T02:38:09.303Z,0.00
2022-09-02T02:39:09.624Z,0.00
2022-09-02T02:40:10.000Z,0.00
2022-09-02T02:41:10.327Z,0.00
2022-09-02T02:42:10.678Z,0.00
2022-09-02T02:43:11.059Z,0.00
2022-09-02T02:44:11.382Z,0.00
2022-09-02T02:45:14.994Z,0.00
2022-09-02T02:46:12.215Z,0.00
2022-09-02T02:47:12.477Z,0.00
2022-09-02T02:48:12.861Z,0.00
2022-09-02T02:49:13.188Z,0.00
2022-09-02T02:50:13.557Z,0.00
2022-09-02T02:51:14.001Z,0.00
2022-09-02T02:52:14.292Z,0.00
2022-09-02T02:53:14.667Z,0.00
2022-09-02T02:54:14.963Z,0.00
2022-09-02T02:55:15.335Z,0.00
2022-09-02T02:56:15.692Z,0.00
2022-09-02T02:57:16.063Z,0.00
2022-09-02T02:58:16.600Z,0.00
2022-09-02T02:59:16.794Z,0.00
2022-09-02T03:00:17.127Z,0.00
2022-09-02T03:01:17.478Z,0.00
2022-09-02T03:02:17.973Z,0.00
2022-09-02T03:03:18.208Z,0.00
2022-09-02T03:04:18.494Z,0.00
2022-09-02T03:05:18.841Z,0.00
2022-09-02T03:06:19.515Z,0.00
2022-09-02T03:07:19.560Z,0.00
2022-09-02T03:08:19.915Z,0.00
2022-09-02T03:09:20.244Z,0.00
2022-09-02T03:10:20.638Z,0.00
2022-09-02T03:11:20.961Z,0.00
2022-09-02T03:12:21.333Z,0.00
2022-09-02T03:13:21.837Z,0.00
2022-09-02T03:14:22.044Z,0.00
2022-09-02T03:15:22.373Z,0.00
2022-09-02T03:16:22.834Z,0.00
2022-09-02T03:17:23.094Z,0.00
2022-09-02T03:18:23.434Z,0.00
2022-09-02T03:19:23.761Z,0.00
2022-09-02T03:20:24.135Z,0.00
2022-09-02T03:21:24.532Z,0.00
2022-09-02T03:22:24.841Z,0.00
2022-09-02T03:23:25.219Z,0.00
2022-09-02T03:24:25.531Z,0.00
2022-09-02T03:25:25.911Z,0.00
2022-09-02T03:26:26.263Z,0.00
2022-09-02T03:27:26.625Z,0.00
2022-09-02T03:28:27.010Z,0.00
2022-09-02T03:29:27.354Z,0.00
2022-09-02T03:30:27.718Z,0.00
2022-09-02T03:31:28.098Z,0.00
2022-09-02T03:32:30.590Z,0.00
2022-09-02T03:33:28.833Z,0.00
2022-09-02T03:34:29.152Z,0.00
2022-09-02T03:35:29.503Z,0.00
2022-09-02T03:36:29.857Z,0.00
2022-09-02T03:37:30.231Z,0.00
2022-09-02T03:38:30.606Z,0.00
2022-09-02T03:39:30.935Z,0.00
2022-09-02T03:40:31.318Z,0.00
2022-09-02T03:41:31.652Z,0.00
2022-09-02T03:42:32.004Z,0.00
2022-09-02T03:43:32.382Z,0.00
2022-09-02T03:44:32.722Z,0.00
2022-09-02T03:45:33.157Z,0.00
2022-09-02T03:46:33.452Z,0.00
2022-09-02T03:47:33.811Z,0.00
2022-09-02T03:48:34.189Z,0.00
2022-09-02T03:49:34.534Z,0.00
2022-09-02T03:50:34.896Z,0.00
2022-09-02T03:51:35.282Z,0.00
2022-09-02T03:52:35.669Z,0.00
2022-09-02T03:53:36.069Z,0.00
2022-09-02T03:54:36.402Z,0.00
2022-09-02T03:55:36.643Z,1.00
2022-09-02T03:56:36.809Z,1.00
2022-09-02T03:57:36.986Z,1.00
2022-09-02T03:58:37.159Z,2.00
2022-09-02T03:59:37.533Z,0.00
2022-09-02T04:00:37.767Z,2.00
2022-09-02T04:01:38.004Z,1.00
2022-09-02T04:02:38.250Z,3.00
2022-09-02T04:03:38.302Z,2.00
2022-09-02T04:04:38.569Z,5.00
2022-09-02T04:05:38.726Z,2.00
2022-09-02T04:06:38.885Z,3.00
2022-09-02T04:07:39.065Z,10.00
2022-09-02T04:08:39.250Z,7.00
2022-09-02T04:09:41.471Z,10.00
2022-09-02T04:10:39.697Z,10.00
2022-09-02T04:11:39.874Z,15.00
2022-09-02T04:12:40.160Z,12.00
2022-09-02T04:13:40.353Z,17.00
2022-09-02T04:14:40.627Z,22.00
2022-09-02T04:15:40.839Z,24.00
2022-09-02T04:16:40.988Z,27.00
2022-09-02T04:17:41.173Z,36.00
2022-09-02T04:18:41.363Z,42.00
2022-09-02T04:19:41.643Z,44.00
2022-09-02T04:20:41.920Z,48.00
2022-09-02T04:21:42.113Z,58.00
2022-09-02T04:22:42.390Z,67.00
2022-09-02T04:23:42.594Z,72.00
2022-09-02T04:24:42.764Z,72.00
2022-09-02T04:25:42.929Z,94.00
2022-09-02T04:26:45.256Z,101.00
2022-09-02T04:27:43.521Z,112.00
2022-09-02T04:28:43.689Z,127.00
2022-09-02T04:29:43.851Z,142.00
2022-09-02T04:30:44.027Z,156.00
2022-09-02T04:31:44.231Z,175.00
2022-09-02T04:32:44.369Z,187.00
2022-09-02T04:33:44.604Z,203.00
2022-09-02T04:34:44.713Z,225.00
2022-09-02T04:35:44.885Z,242.00
2022-09-02T04:36:45.045Z,261.00
2022-09-02T04:37:45.238Z,279.00
2022-09-02T04:38:47.647Z,301.00
2022-09-02T04:39:45.580Z,326.00
2022-09-02T04:40:45.787Z,349.00
2022-09-02T04:41:45.928Z,371.00
2022-09-02T04:42:46.084Z,395.00
2022-09-02T04:43:46.268Z,419.00
2022-09-02T04:44:46.430Z,438.00
2022-09-02T04:45:46.713Z,459.00
2022-09-02T04:46:46.799Z,478.00
2022-09-02T04:47:46.958Z,498.00
2022-09-02T04:48:47.141Z,518.00
2022-09-02T04:49:47.302Z,540.00
2022-09-02T04:50:47.449Z,559.00
2022-09-02T04:51:47.614Z,578.00
2022-09-02T04:52:47.788Z,601.00
2022-09-02T04:53:47.971Z,618.00
2022-09-02T04:54:48.124Z,636.00
2022-09-02T04:55:48.298Z,657.00
2022-09-02T04:56:48.500Z,676.00
2022-09-02T04:57:48.643Z,696.00
2022-09-02T04:58:48.829Z,717.00
2022-09-02T04:59:48.990Z,736.00
2022-09-02T05:00:49.170Z,755.00
2022-09-02T05:01:49.455Z,777.00
2022-09-02T05:02:49.558Z,799.00
2022-09-02T05:03:49.694Z,816.00
2022-09-02T05:04:49.854Z,833.00
2022-09-02T05:05:50.036Z,850.00
2022-09-02T05:06:50.220Z,872.00
2022-09-02T05:07:50.394Z,887.00
2022-09-02T05:08:50.591Z,902.00
2022-09-02T05:09:50.818Z,917.00
2022-09-02T05:10:50.938Z,934.00
2022-09-02T05:11:51.112Z,956.00
2022-09-02T05:12:51.279Z,979.00
2022-09-02T05:13:51.539Z,998.00
2022-09-02T05:14:51.650Z,1014.00
2022-09-02T05:15:51.873Z,1029.00
2022-09-02T05:16:51.991Z,1045.00
2022-09-02T05:17:52.161Z,1062.00
2022-09-02T05:18:52.379Z,1076.00
2022-09-02T05:19:52.551Z,1092.00
2022-09-02T05:20:52.758Z,1109.00
2022-09-02T05:21:52.937Z,1123.00
2022-09-02T05:22:53.107Z,1137.00
2022-09-02T05:23:54.580Z,1151.00
2022-09-02T05:24:53.508Z,1165.00
2022-09-02T05:25:53.670Z,1178.00
2022-09-02T05:26:53.858Z,1192.00
2022-09-02T05:27:54.046Z,1206.00
2022-09-02T05:28:54.240Z,1218.00
2022-09-02T05:29:54.407Z,1232.00
2022-09-02T05:30:54.662Z,1245.00
2022-09-02T05:31:54.797Z,1258.00
2022-09-02T05:32:54.986Z,1270.00
2022-09-02T05:33:55.227Z,1282.00
2022-09-02T05:34:55.373Z,1296.00
2022-09-02T05:35:55.556Z,1306.00
2022-09-02T05:36:55.742Z,1319.00
2022-09-02T05:38:00.619Z,1331.00
2022-09-02T05:38:56.135Z,1344.00
2022-09-02T05:39:56.284Z,1354.00
2022-09-02T05:40:56.597Z,1365.00
2022-09-02T05:41:56.644Z,1379.00
2022-09-02T05:42:56.823Z,1389.00
2022-09-02T05:43:57.038Z,1403.00
2022-09-02T05:44:57.222Z,1411.00
2022-09-02T05:45:57.451Z,1422.00
2022-09-02T05:46:57.571Z,1437.00
2022-09-02T05:47:57.775Z,1448.00
2022-09-02T05:48:57.963Z,1462.00
2022-09-02T05:49:58.113Z,1471.00
2022-09-02T05:50:58.626Z,1484.00
2022-09-02T05:51:58.511Z,1494.00
2022-09-02T05:52:58.704Z,1505.00
2022-09-02T05:53:58.927Z,1514.00
2022-09-02T05:54:59.066Z,1524.00
2022-09-02T05:55:59.269Z,1532.00
2022-09-02T05:56:59.460Z,1542.00
2022-09-02T05:57:59.652Z,1550.00
2022-09-02T05:59:00.026Z,1561.00
2022-09-02T06:00:00.082Z,1569.00
2022-09-02T06:01:00.222Z,1578.00
2022-09-02T06:02:00.502Z,1588.00
2022-09-02T06:03:00.705Z,1598.00
2022-09-02T06:04:00.831Z,1611.00
2022-09-02T06:05:00.995Z,1619.00
2022-09-02T06:06:06.022Z,1630.00
2022-09-02T06:07:01.376Z,1640.00
2022-09-02T06:08:01.561Z,1652.00
2022-09-02T06:09:01.779Z,1660.00
2022-09-02T06:10:01.948Z,1669.00
2022-09-02T06:11:02.155Z,1680.00
2022-09-02T06:12:02.340Z,1689.00
2022-09-02T06:13:02.519Z,1699.00
2022-09-02T06:14:02.722Z,1708.00
2022-09-02T06:15:02.915Z,1721.00
2022-09-02T06:16:03.272Z,1730.00
2022-09-02T06:17:03.282Z,1740.00
2022-09-02T06:18:03.463Z,1752.00
2022-09-02T06:19:03.670Z,1760.00
2022-09-02T06:20:03.854Z,1764.00
2022-09-02T06:21:04.049Z,1774.00
2022-09-02T06:22:04.233Z,1785.00
2022-09-02T06:23:04.441Z,1796.00
2022-09-02T06:24:04.666Z,1803.00
2022-09-02T06:25:04.878Z,1815.00
2022-09-02T06:26:05.022Z,1825.00
2022-09-02T06:27:05.223Z,1837.00
2022-09-02T06:28:07.385Z,1843.00
2022-09-02T06:29:05.614Z,1850.00
2022-09-02T06:30:05.767Z,1863.00
2022-09-02T06:31:05.994Z,1869.00
2022-09-02T06:32:06.150Z,1878.00
2022-09-02T06:33:06.472Z,1888.00
2022-09-02T06:34:06.577Z,1897.00
2022-09-02T06:35:06.730Z,1900.00
2022-09-02T06:36:06.920Z,1910.00
2022-09-02T06:37:07.118Z,1919.00
2022-09-02T06:38:07.344Z,1925.00
2022-09-02T06:39:07.500Z,1934.00
2022-09-02T06:40:07.773Z,1941.00
2022-09-02T06:41:07.852Z,1952.00
2022-09-02T06:42:08.041Z,1962.00
2022-09-02T06:43:08.224Z,1967.00
2022-09-02T06:44:08.459Z,1977.00
2022-09-02T06:45:08.616Z,1985.00
2022-09-02T06:46:08.851Z,1991.00
2022-09-02T06:47:09.003Z,2002.00
2022-09-02T06:48:09.201Z,2008.00
2022-09-02T06:49:09.443Z,2017.00
2022-09-02T06:50:09.566Z,2027.00
2022-09-02T06:51:09.752Z,2034.00
2022-09-02T06:52:09.939Z,2044.00
2022-09-02T06:53:10.133Z,2047.00
2022-09-02T06:54:10.340Z,2053.00
2022-09-02T06:55:10.524Z,2059.00
2022-09-02T06:56:10.721Z,2064.00
2022-09-02T06:57:10.913Z,2074.00
2022-09-02T06:58:11.114Z,2077.00
2022-09-02T06:59:11.326Z,2087.00
2022-09-02T07:00:11.505Z,2092.00
2022-09-02T07:01:11.812Z,2099.00
2022-09-02T07:02:12.062Z,2106.00
2022-09-02T07:03:12.081Z,2112.00
2022-09-02T07:04:12.306Z,2123.00
2022-09-02T07:05:12.461Z,2129.00
2022-09-02T07:06:12.644Z,2135.00
2022-09-02T07:07:12.836Z,2143.00
2022-09-02T07:08:13.037Z,2148.00
2022-09-02T07:09:13.244Z,2156.00
2022-09-02T07:10:13.396Z,2160.00
2022-09-02T07:11:13.584Z,2165.00
2022-09-02T07:12:13.805Z,2171.00
2022-09-02T07:13:13.973Z,2181.00
2022-09-02T07:14:14.165Z,2189.00
2022-09-02T07:15:14.359Z,2194.00
2022-09-02T07:16:20.459Z,2202.00
2022-09-02T07:17:14.799Z,2208.00
2022-09-02T07:18:14.934Z,2215.00
2022-09-02T07:19:19.935Z,2223.00
2022-09-02T07:20:15.293Z,2228.00
2022-09-02T07:21:15.469Z,2234.00
2022-09-02T07:22:18.050Z,2243.00
2022-09-02T07:23:15.855Z,2249.00
2022-09-02T07:24:16.071Z,2256.00
2022-09-02T07:25:16.243Z,2259.00
2022-09-02T07:26:16.450Z,2270.00
2022-09-02T07:27:16.603Z,2273.00
2022-09-02T07:28:16.785Z,2280.00
2022-09-02T07:29:16.987Z,2290.00
2022-09-02T07:30:17.135Z,2297.00
2022-09-02T07:31:17.375Z,2300.00
2022-09-02T07:32:17.501Z,2305.00
2022-09-02T07:33:17.777Z,2309.00
2022-09-02T07:34:17.957Z,2316.00
2022-09-02T07:35:18.081Z,2322.00
2022-09-02T07:36:18.271Z,2329.00
2022-09-02T07:37:18.466Z,2338.00
2022-09-02T07:38:18.672Z,2343.00
2022-09-02T07:39:18.899Z,2350.00
2022-09-02T07:40:19.151Z,2355.00
2022-09-02T07:41:19.214Z,2362.00
2022-09-02T07:42:19.456Z,2366.00
2022-09-02T07:43:19.592Z,2376.00
2022-09-02T07:44:19.809Z,2383.00
2022-09-02T07:45:19.960Z,2395.00
2022-09-02T07:46:20.207Z,2401.00
2022-09-02T07:47:20.355Z,2404.00
2022-09-02T07:48:20.522Z,2413.00
2022-09-02T07:49:23.916Z,2424.00
2022-09-02T07:50:21.755Z,2430.00
2022-09-02T07:51:21.067Z,2439.00
2022-09-02T07:52:21.262Z,2442.00
2022-09-02T07:53:21.601Z,2453.00
2022-09-02T07:54:21.628Z,2462.00
2022-09-02T07:55:21.807Z,2465.00
2022-09-02T07:56:21.996Z,2475.00
2022-09-02T07:57:22.215Z,2482.00
2022-09-02T07:58:22.373Z,2492.00
2022-09-02T07:59:22.585Z,2497.00
2022-09-02T08:00:22.795Z,2505.00
2022-09-02T08:01:23.840Z,2508.00
2022-09-02T08:02:23.145Z,2518.00
2022-09-02T08:03:23.393Z,2523.00
2022-09-02T08:04:23.482Z,2534.00
2022-09-02T08:05:23.658Z,2537.00
2022-09-02T08:06:33.968Z,2540.00
2022-09-02T08:07:24.008Z,2545.00
2022-09-02T08:08:24.200Z,2549.00
2022-09-02T08:09:24.419Z,2554.00
2022-09-02T08:10:24.592Z,2559.00
2022-09-02T08:11:24.770Z,2571.00
2022-09-02T08:12:24.972Z,2572.00
2022-09-02T08:13:26.990Z,2579.00
2022-09-02T08:14:25.377Z,2587.00
2022-09-02T08:15:25.633Z,2593.00
2022-09-02T08:16:25.795Z,2600.00
2022-09-02T08:17:25.919Z,2605.00
2022-09-02T08:18:26.172Z,2612.00
2022-09-02T08:19:26.324Z,2620.00
2022-09-02T08:20:26.479Z,2628.00
2022-09-02T08:21:26.687Z,2634.00
2022-09-02T08:22:26.907Z,2641.00
2022-09-02T08:23:37.246Z,2648.00
2022-09-02T08:24:27.317Z,2654.00
2022-09-02T08:25:27.484Z,2661.00
2022-09-02T08:26:27.666Z,2665.00
2022-09-02T08:27:27.861Z,2671.00
2022-09-02T08:28:28.063Z,2677.00
2022-09-02T08:29:28.295Z,2682.00
2022-09-02T08:30:28.439Z,2688.00
2022-09-02T08:31:28.686Z,2694.00
2022-09-02T08:32:28.805Z,2703.00
2022-09-02T08:33:29.000Z,2709.00
2022-09-02T08:34:29.230Z,2715.00
2022-09-02T08:35:29.496Z,2720.00
2022-09-02T08:36:29.585Z,2725.00
2022-09-02T08:37:29.779Z,2730.00
2022-09-02T08:38:29.972Z,2732.00
2022-09-02T08:39:30.180Z,2741.00
2022-09-02T08:40:30.386Z,2745.00
2022-09-02T08:41:30.505Z,2747.00
2022-09-02T08:42:30.719Z,2759.00
2022-09-02T08:43:30.877Z,2765.00
2022-09-02T08:44:31.110Z,2776.00
2022-09-02T08:45:31.348Z,2786.00
2022-09-02T08:46:31.478Z,2794.00
2022-09-02T08:47:31.663Z,2802.00
2022-09-02T08:48:31.865Z,2811.00
2022-09-02T08:49:32.066Z,2820.00
2022-09-02T08:50:32.223Z,2824.00
2022-09-02T08:51:37.376Z,2833.00
2022-09-02T08:52:32.597Z,2837.00
2022-09-02T08:53:32.800Z,2843.00
2022-09-02T08:54:33.025Z,2848.00
2022-09-02T08:55:33.204Z,2853.00
2022-09-02T08:56:33.360Z,2860.00
2022-09-02T08:57:33.550Z,2869.00
2022-09-02T08:58:33.708Z,2871.00
2022-09-02T08:59:33.955Z,2883.00
2022-09-02T09:00:34.067Z,2890.00
2022-09-02T09:01:34.331Z,2895.00
2022-09-02T09:02:34.471Z,2898.00
2022-09-02T09:03:34.646Z,2904.00
2022-09-02T09:04:34.858Z,2911.00
2022-09-02T09:05:35.011Z,2909.00
2022-09-02T09:06:35.205Z,2920.00
2022-09-02T09:08:35.579Z,2936.00
2022-09-02T09:09:35.881Z,2944.00
2022-09-02T09:10:35.963Z,2949.00
2022-09-02T09:11:36.151Z,2957.00
2022-09-02T09:12:36.346Z,2961.00
2022-09-02T09:13:41.217Z,2970.00
2022-09-02T09:14:36.731Z,3002.00
2022-09-02T09:15:36.897Z,3121.00
2022-09-02T09:16:37.110Z,3242.00
2022-09-02T09:17:37.276Z,3279.00
2022-09-02T09:18:37.455Z,3285.00
2022-09-02T09:19:37.660Z,3297.00
2022-09-02T09:20:37.813Z,3307.00
2022-09-02T09:21:38.003Z,3315.00
2022-09-02T09:22:38.174Z,3320.00
2022-09-02T09:23:38.417Z,3339.00
2022-09-02T09:24:38.594Z,3348.00
2022-09-02T09:25:38.791Z,3360.00
2022-09-02T09:26:38.945Z,3372.00
2022-09-02T09:27:39.144Z,3370.00
2022-09-02T09:28:39.337Z,3374.00
2022-09-02T09:29:39.553Z,3380.00
2022-09-02T09:30:39.722Z,3384.00
2022-09-02T09:31:39.966Z,3384.00
2022-09-02T09:32:40.097Z,3399.00
2022-09-02T09:33:40.257Z,3408.00
2022-09-02T09:34:40.491Z,3420.00
2022-09-02T09:35:40.647Z,3437.00
2022-09-02T09:36:40.827Z,3458.00
2022-09-02T09:37:41.001Z,3482.00
2022-09-02T09:38:41.218Z,3536.00
2022-09-02T09:39:41.406Z,3604.00
2022-09-02T09:40:41.618Z,3687.00
2022-09-02T09:41:41.771Z,3796.00
2022-09-02T09:42:43.820Z,3915.00
2022-09-02T09:43:42.161Z,4047.00
2022-09-02T09:44:42.342Z,4192.00
2022-09-02T09:45:42.543Z,4344.00
2022-09-02T09:46:42.692Z,4518.00
2022-09-02T09:47:42.880Z,4656.00
2022-09-02T09:48:43.090Z,4733.00
2022-09-02T09:49:43.252Z,4905.00
2022-09-02T09:50:43.441Z,9770.00
2022-09-02T09:51:49.941Z,19447.00
2022-09-02T09:52:43.835Z,77379.00
2022-09-02T09:53:44.040Z,76829.00
2022-09-02T09:54:44.263Z,75786.00
2022-09-02T09:55:44.440Z,76478.00
2022-09-02T09:56:44.644Z,76698.00
2022-09-02T09:57:44.887Z,75891.00
2022-09-02T09:58:45.057Z,75404.00
2022-09-02T09:59:45.256Z,76360.00
2022-09-02T10:00:45.453Z,77701.00
2022-09-02T10:01:45.653Z,77202.00
2022-09-02T10:02:45.802Z,75741.00
2022-09-02T10:03:45.988Z,75582.00
2022-09-02T10:04:46.341Z,76330.00
2022-09-02T10:05:46.379Z,76605.00
2022-09-02T10:06:46.576Z,77450.00
2022-09-02T10:07:46.761Z,78321.00
2022-09-02T10:08:46.968Z,77108.00
2022-09-02T10:09:47.176Z,75298.00
2022-09-02T10:10:47.383Z,74561.00
2022-09-02T10:11:47.565Z,75034.00
2022-09-02T10:12:47.797Z,75575.00
2022-09-02T10:13:47.969Z,76509.00
2022-09-02T10:14:48.215Z,77641.00
2022-09-02T10:15:48.423Z,78057.00
2022-09-02T10:16:48.635Z,79272.00
2022-09-02T10:17:48.842Z,80333.00
2022-09-02T10:18:49.322Z,80493.00
2022-09-02T10:19:49.251Z,80481.00
2022-09-02T10:21:11.384Z,78771.00
2022-09-02T10:21:49.674Z,76551.00
2022-09-02T10:22:58.838Z,77844.00
2022-09-02T10:23:50.078Z,79232.00
2022-09-02T10:24:50.283Z,77905.00
2022-09-02T10:25:50.435Z,76620.00
2022-09-02T10:26:50.656Z,76849.00
2022-09-02T10:27:50.847Z,77195.00
2022-09-02T10:28:51.852Z,79116.00
2022-09-02T10:29:51.277Z,81978.00
2022-09-02T10:30:51.475Z,81781.00
2022-09-02T10:31:51.735Z,79430.00
2022-09-02T10:32:51.862Z,79756.00
2022-09-02T10:33:52.035Z,80842.00
2022-09-02T10:34:52.274Z,78693.00
2022-09-02T10:35:52.428Z,77453.00
2022-09-02T10:36:52.638Z,77878.00
2022-09-02T10:37:52.830Z,78372.00
2022-09-02T10:38:53.009Z,79112.00
2022-09-02T10:39:53.203Z,79672.00
2022-09-02T10:40:53.500Z,79817.00
2022-09-02T10:41:53.610Z,79783.00
2022-09-02T10:42:53.800Z,79074.00
2022-09-02T10:43:57.374Z,83328.00
2022-09-02T10:44:58.372Z,76263.00
2022-09-02T10:45:54.383Z,76154.00
2022-09-02T10:46:54.656Z,76107.00
2022-09-02T10:47:54.797Z,80744.00
2022-09-02T10:48:54.997Z,79466.00
2022-09-02T10:49:55.201Z,79581.00
2022-09-02T10:50:55.393Z,80163.00
2022-09-02T10:51:55.615Z,80153.00
2022-09-02T10:52:55.814Z,79672.00
2022-09-02T10:53:56.000Z,79291.00
2022-09-02T10:54:56.240Z,79203.00
2022-09-02T10:55:56.420Z,79772.00
2022-09-02T10:56:56.657Z,80541.00
2022-09-02T10:57:56.855Z,81914.00
2022-09-02T10:58:57.148Z,81958.00
2022-09-02T10:59:57.296Z,80327.00
2022-09-02T11:00:57.557Z,78925.00
2022-09-02T11:01:57.672Z,78442.00
2022-09-02T11:02:57.886Z,78981.00
2022-09-02T11:03:58.152Z,78531.00
2022-09-02T11:04:58.296Z,79264.00
2022-09-02T11:05:58.443Z,80900.00
2022-09-02T11:07:02.837Z,81104.00
2022-09-02T11:07:58.815Z,81473.00
2022-09-02T11:08:59.062Z,80767.00
2022-09-02T11:09:59.358Z,19091.00
2022-09-02T11:10:59.482Z,11839.00
2022-09-02T11:12:00.286Z,79255.00
2022-09-02T11:12:59.913Z,79718.00
2022-09-02T11:14:00.100Z,79957.00
2022-09-02T11:15:00.311Z,79813.00
2022-09-02T11:16:00.498Z,79750.00
2022-09-02T11:17:00.742Z,81092.00
2022-09-02T11:18:00.974Z,83035.00
2022-09-02T11:19:01.117Z,82872.00
2022-09-02T11:20:01.357Z,81223.00
2022-09-02T11:21:01.524Z,79128.00
2022-09-02T11:22:01.725Z,79019.00
2022-09-02T11:23:01.933Z,7318.00
2022-09-02T11:24:02.139Z,82477.00
2022-09-02T11:25:02.401Z,12354.00
2022-09-02T11:26:02.496Z,12226.00
2022-09-02T11:27:02.717Z,82886.00
2022-09-02T11:28:02.886Z,81821.00
2022-09-02T11:29:03.082Z,82143.00
2022-09-02T11:30:03.295Z,10673.00
2022-09-02T11:31:03.514Z,11163.00
2022-09-02T11:32:03.685Z,77940.00
2022-09-02T11:33:03.900Z,22620.00
2022-09-02T11:35:04.322Z,79509.00
2022-09-02T11:36:04.467Z,80314.00
2022-09-02T11:37:04.647Z,80585.00
2022-09-02T11:38:04.839Z,80928.00
2022-09-02T11:39:05.040Z,81858.00
2022-09-02T11:40:30.421Z,80147.00
2022-09-02T11:42:05.657Z,78792.00
2022-09-02T11:43:05.786Z,79604.00
2022-09-02T11:44:05.965Z,80988.00
2022-09-02T11:45:06.249Z,80400.00
2022-09-02T11:46:06.479Z,81064.00
2022-09-02T11:47:06.565Z,82903.00
2022-09-02T11:48:06.778Z,83239.00
2022-09-02T11:49:08.512Z,81815.00
2022-09-02T11:50:07.222Z,25116.00
2022-09-02T11:51:07.408Z,10067.00
2022-09-02T11:52:07.591Z,31495.00
2022-09-02T11:53:07.787Z,81991.00
2022-09-02T11:54:07.958Z,9238.00
2022-09-02T11:55:08.191Z,10559.00
2022-09-02T11:56:08.384Z,79944.00
2022-09-02T11:57:08.575Z,11732.00
2022-09-02T11:58:08.756Z,8010.00
2022-09-02T11:59:08.938Z,7934.00
2022-09-02T12:00:09.151Z,8049.00
2022-09-02T12:01:13.721Z,8341.00
2022-09-02T12:02:09.531Z,9688.00
2022-09-02T12:03:28.580Z,80865.00
2022-09-02T12:05:10.563Z,81265.00
2022-09-02T12:06:10.526Z,82417.00
2022-09-02T12:07:10.801Z,81304.00
2022-09-02T12:08:10.762Z,80158.00
2022-09-02T12:09:10.974Z,79868.00
2022-09-02T12:10:11.196Z,80661.00
2022-09-02T12:11:11.343Z,80536.00
2022-09-02T12:12:11.532Z,79649.00
2022-09-02T12:13:11.743Z,26047.00
2022-09-02T12:14:11.937Z,8350.00
2022-09-02T12:15:12.180Z,8292.00
2022-09-02T12:16:12.385Z,8924.00
2022-09-02T12:17:12.555Z,14021.00
2022-09-02T12:18:12.721Z,7889.00
2022-09-02T12:19:12.939Z,7798.00
2022-09-02T12:20:13.119Z,7390.00
2022-09-02T12:21:15.969Z,7139.00
2022-09-02T12:22:13.496Z,82418.00
2022-09-02T12:23:13.662Z,81662.00
2022-09-02T12:24:13.851Z,19776.00
2022-09-02T12:25:14.101Z,79928.00
2022-09-02T12:26:16.050Z,80435.00
2022-09-02T12:27:14.471Z,80024.00
2022-09-02T12:28:18.960Z,80614.00
2022-09-02T12:29:14.893Z,80054.00
2022-09-02T12:30:15.105Z,25979.00
2022-09-02T12:31:15.339Z,82198.00
2022-09-02T12:32:15.454Z,81315.00
2022-09-02T12:33:15.638Z,80260.00